createdAt,value
2018-07-26T00:00:00.425Z,1000.97
2018-07-26T00:00:40.877Z,1000.95
2018-07-26T00:01:21.388Z,1000.96
2018-07-26T00:02:01.869Z,1000.94
2018-07-26T00:02:42.396Z,1000.94
2018-07-26T00:03:22.900Z,1000.91
2018-07-26T00:04:03.415Z,1000.89
2018-07-26T00:04:43.920Z,1000.89
2018-07-26T00:05:24.389Z,1000.89
2018-07-26T00:06:04.903Z,1000.9
2018-07-26T00:06:45.407Z,1000.92
2018-07-26T00:07:25.879Z,1000.9
2018-07-26T00:08:06.383Z,1000.9
2018-07-26T00:08:46.859Z,1000.88
2018-07-26T00:09:27.328Z,1000.89
2018-07-26T00:10:07.894Z,1000.89
2018-07-26T00:10:48.343Z,1000.92
2018-07-26T00:11:28.967Z,1000.89
2018-07-26T00:12:09.425Z,1000.94
2018-07-26T00:12:49.973Z,1000.91
2018-07-26T00:13:30.421Z,1000.95
2018-07-26T00:14:10.958Z,1000.95
2018-07-26T00:14:51.452Z,1000.97
2018-07-26T00:15:31.950Z,1000.93
2018-07-26T00:16:12.463Z,1000.96
2018-07-26T00:16:52.957Z,1000.95
2018-07-26T00:17:33.501Z,1000.93
2018-07-26T00:18:14.009Z,1000.93
2018-07-26T00:18:54.511Z,1000.92
2018-07-26T00:19:35.000Z,1000.92
2018-07-26T00:20:15.507Z,1000.91
2018-07-26T00:20:55.992Z,1000.91
2018-07-26T00:21:36.559Z,1000.94
2018-07-26T00:22:17.017Z,1000.95
2018-07-26T00:22:57.482Z,1000.96
2018-07-26T00:23:37.967Z,1000.94
2018-07-26T00:24:18.474Z,1000.93
2018-07-26T00:24:59.007Z,1000.9
2018-07-26T00:25:39.496Z,1000.91
2018-07-26T00:26:20.000Z,1000.95
2018-07-26T00:27:00.489Z,1000.93
2018-07-26T00:27:41.027Z,1000.92
2018-07-26T00:28:21.497Z,1000.94
2018-07-26T00:29:01.998Z,1000.92
2018-07-26T00:29:42.544Z,1000.93
2018-07-26T00:30:23.049Z,1000.95
2018-07-26T00:31:03.624Z,1000.91
2018-07-26T00:31:44.074Z,1000.94
2018-07-26T00:32:24.619Z,1000.95
2018-07-26T00:33:05.125Z,1000.97
2018-07-26T00:33:45.615Z,1000.97
2018-07-26T00:34:26.131Z,1000.91
2018-07-26T00:35:06.593Z,1000.97
2018-07-26T00:35:47.104Z,1000.99
2018-07-26T00:36:27.567Z,1001.01
2018-07-26T00:37:08.040Z,1001
2018-07-26T00:37:48.554Z,1001
2018-07-26T00:38:29.083Z,1001.01
2018-07-26T00:39:09.565Z,1001.06
2018-07-26T00:39:50.078Z,1001.06
2018-07-26T00:40:30.568Z,1001.06
2018-07-26T00:41:11.140Z,1001.05
2018-07-26T00:41:51.587Z,1001.07
2018-07-26T00:42:32.080Z,1001.04
2018-07-26T00:43:12.586Z,1001.03
2018-07-26T00:43:53.153Z,1001.02
2018-07-26T00:44:33.634Z,1001.05
2018-07-26T00:45:14.122Z,1001.02
2018-07-26T00:45:54.631Z,1001.02
2018-07-26T00:46:35.111Z,1001.03
2018-07-26T00:47:15.640Z,1001.04
2018-07-26T00:47:56.185Z,1001.02
2018-07-26T00:48:36.640Z,1001.06
2018-07-26T00:49:17.135Z,1001.02
2018-07-26T00:49:57.637Z,1001
2018-07-26T00:50:38.135Z,1000.99
2018-07-26T00:51:18.642Z,1001.04
2018-07-26T00:51:59.207Z,1001.05
2018-07-26T00:52:39.660Z,1001.06
2018-07-26T00:53:20.145Z,1001.02
2018-07-26T00:54:00.657Z,1001.05
2018-07-26T00:54:41.183Z,1001.02
2018-07-26T00:55:21.671Z,1001.03
2018-07-26T00:56:02.208Z,1001.03
2018-07-26T00:56:42.743Z,1001.03
2018-07-26T00:57:23.223Z,1001.04
2018-07-26T00:58:03.673Z,1001.02
2018-07-26T00:58:44.185Z,1001.04
2018-07-26T00:59:24.705Z,1001
2018-07-26T01:00:05.214Z,1001.01
2018-07-26T01:00:45.722Z,1001.05
2018-07-26T01:01:26.222Z,1001.03
2018-07-26T01:02:06.675Z,1001.02
2018-07-26T01:02:47.200Z,1001.02
2018-07-26T01:03:27.697Z,1001.07
2018-07-26T01:04:08.164Z,1001.05
2018-07-26T01:04:48.675Z,1001.04
2018-07-26T01:05:29.196Z,1001.08
2018-07-26T01:06:09.676Z,1001.06
2018-07-26T01:06:50.175Z,1001.1
2018-07-26T01:07:30.662Z,1001.05
2018-07-26T01:08:11.151Z,1001.07
2018-07-26T01:08:51.688Z,1001.07
2018-07-26T01:09:32.206Z,1001.06
2018-07-26T01:10:12.682Z,1001.02
2018-07-26T01:10:53.186Z,1001.05
2018-07-26T01:11:33.712Z,1001.06
2018-07-26T01:12:14.198Z,1001.12
2018-07-26T01:12:54.690Z,1001.16
2018-07-26T01:13:35.200Z,1001.11
2018-07-26T01:14:15.770Z,1001.16
2018-07-26T01:14:56.292Z,1001.18
2018-07-26T01:15:36.803Z,1001.16
2018-07-26T01:16:17.301Z,1001.17
2018-07-26T01:16:57.810Z,1001.17
2018-07-26T01:17:38.320Z,1001.2
2018-07-26T01:18:18.811Z,1001.21
2018-07-26T01:18:59.356Z,1001.18
2018-07-26T01:19:39.846Z,1001.21
2018-07-26T01:20:20.347Z,1001.21
2018-07-26T01:22:33.640Z,1001.2
2018-07-26T01:23:14.117Z,1001.22
2018-07-26T01:23:54.612Z,1001.15
2018-07-26T01:24:35.174Z,1001.17
2018-07-26T01:25:15.764Z,1001.16
2018-07-26T01:25:56.269Z,1001.17
2018-07-26T01:26:36.763Z,1001.19
2018-07-26T01:27:17.260Z,1001.13
2018-07-26T01:27:57.779Z,1001.14
2018-07-26T01:28:38.292Z,1001.16
2018-07-26T01:29:18.762Z,1001.16
2018-07-26T01:29:59.342Z,1001.14
2018-07-26T01:30:39.788Z,1001.12
2018-07-26T01:31:20.292Z,1001.14
2018-07-26T01:32:00.795Z,1001.13
2018-07-26T01:32:41.326Z,1001.1
2018-07-26T01:33:21.761Z,1001.18
2018-07-26T01:34:02.259Z,1001.15
2018-07-26T01:34:42.762Z,1001.12
2018-07-26T01:35:23.268Z,1001.13
2018-07-26T01:36:03.758Z,1001.12
2018-07-26T01:36:44.296Z,1001.08
2018-07-26T01:37:24.726Z,1001.11
2018-07-26T01:38:05.281Z,1001.11
2018-07-26T01:38:45.767Z,1001.1
2018-07-26T01:39:26.232Z,1001.08
2018-07-26T01:40:06.712Z,1001.09
2018-07-26T01:40:47.202Z,1001.04
2018-07-26T01:41:27.707Z,1001.07
2018-07-26T01:42:08.214Z,1001.06
2018-07-26T01:42:48.693Z,1001.09
2018-07-26T01:43:29.197Z,1001.07
2018-07-26T01:44:09.693Z,1001.09
2018-07-26T01:44:50.251Z,1001.06
2018-07-26T01:45:30.688Z,1001.04
2018-07-26T01:46:11.198Z,1001.02
2018-07-26T01:46:51.640Z,1000.99
2018-07-26T01:47:32.152Z,1001.03
2018-07-26T01:48:12.665Z,1001.02
2018-07-26T01:48:53.248Z,1001
2018-07-26T01:49:33.703Z,1001.01
2018-07-26T01:50:14.235Z,1001.04
2018-07-26T01:50:54.738Z,1001.05
2018-07-26T01:51:35.229Z,1001.09
2018-07-26T01:52:15.723Z,1001.06
2018-07-26T01:52:56.196Z,1001.08
2018-07-26T01:53:36.676Z,1001.11
2018-07-26T01:54:17.186Z,1001.07
2018-07-26T01:54:57.680Z,1001.1
2018-07-26T01:55:38.215Z,1001.06
2018-07-26T01:56:18.696Z,1001.06
2018-07-26T01:56:59.210Z,1001.08
2018-07-26T01:57:39.717Z,1001.03
2018-07-26T01:58:20.215Z,1001.05
2018-07-26T01:59:00.761Z,1001.06
2018-07-26T01:59:41.212Z,1001.05
2018-07-26T02:00:21.697Z,1001.02
2018-07-26T02:01:02.178Z,1001.03
2018-07-26T02:01:42.779Z,1001.01
2018-07-26T02:02:23.201Z,1001.02
2018-07-26T02:03:03.758Z,1001.02
2018-07-26T02:03:44.233Z,1001.03
2018-07-26T02:04:24.677Z,1000.99
2018-07-26T02:05:05.180Z,1000.97
2018-07-26T02:05:45.671Z,1001
2018-07-26T02:06:26.195Z,1000.99
2018-07-26T02:07:06.724Z,1000.99
2018-07-26T02:07:47.175Z,1000.97
2018-07-26T02:08:27.661Z,1000.93
2018-07-26T02:09:08.157Z,1000.97
2018-07-26T02:09:48.642Z,1000.98
2018-07-26T02:10:29.154Z,1000.98
2018-07-26T02:11:09.671Z,1000.94
2018-07-26T02:11:50.184Z,1000.95
2018-07-26T02:12:30.645Z,1000.93
2018-07-26T02:13:11.151Z,1000.93
2018-07-26T02:13:51.645Z,1000.88
2018-07-26T02:14:32.101Z,1000.94
2018-07-26T02:15:12.614Z,1000.95
2018-07-26T02:15:53.166Z,1000.94
2018-07-26T02:16:33.653Z,1001.01
2018-07-26T02:17:14.146Z,1001.01
2018-07-26T02:17:54.656Z,1001.01
2018-07-26T02:18:35.141Z,1000.99
2018-07-26T02:19:15.578Z,1001.02
2018-07-26T02:19:57.954Z,1001.01
2018-07-26T02:20:38.457Z,1000.97
2018-07-26T02:21:18.889Z,1000.97
2018-07-26T02:21:59.372Z,1000.96
2018-07-26T02:22:39.886Z,1000.98
2018-07-26T02:23:20.394Z,1000.95
2018-07-26T02:24:00.868Z,1000.98
2018-07-26T02:24:41.368Z,1000.99
2018-07-26T02:25:21.905Z,1000.98
2018-07-26T02:26:02.468Z,1000.97
2018-07-26T02:26:42.936Z,1001.04
2018-07-26T02:27:23.406Z,1001.02
2018-07-26T02:28:03.939Z,1000.95
2018-07-26T02:28:44.481Z,1001
2018-07-26T02:29:24.946Z,1000.95
2018-07-26T02:30:05.429Z,1000.95
2018-07-26T02:30:45.964Z,1000.94
2018-07-26T02:31:26.464Z,1000.95
2018-07-26T02:32:07.059Z,1000.99
2018-07-26T02:32:47.560Z,1000.96
2018-07-26T02:33:28.043Z,1000.97
2018-07-26T02:34:08.572Z,1000.97
2018-07-26T02:34:49.065Z,1001.02
2018-07-26T02:35:29.565Z,1001.03
2018-07-26T02:36:10.096Z,1001.06
2018-07-26T02:36:51.119Z,1001
2018-07-26T02:37:31.548Z,1001.04
2018-07-26T02:38:12.065Z,1001.02
2018-07-26T02:38:52.546Z,1001.02
2018-07-26T02:39:33.072Z,1001.05
2018-07-26T02:40:13.577Z,1001.03
2018-07-26T02:40:54.083Z,1001.09
2018-07-26T02:41:34.627Z,1001.04
2018-07-26T02:42:15.141Z,1000.99
2018-07-26T02:42:55.651Z,1001.03
2018-07-26T02:43:36.157Z,1001.08
2018-07-26T02:44:16.625Z,1001.01
2018-07-26T02:44:57.088Z,1001
2018-07-26T02:45:37.621Z,1001.02
2018-07-26T02:46:18.110Z,1001
2018-07-26T02:46:58.578Z,1001.06
2018-07-26T02:47:39.076Z,1001.02
2018-07-26T02:48:19.581Z,1001.05
2018-07-26T02:49:00.043Z,1001.04
2018-07-26T02:49:40.540Z,1001.06
2018-07-26T02:50:21.030Z,1001.11
2018-07-26T02:51:01.544Z,1001.07
2018-07-26T02:51:42.064Z,1001.07
2018-07-26T02:52:22.538Z,1001.11
2018-07-26T02:53:03.069Z,1001.11
2018-07-26T02:53:43.560Z,1001.08
2018-07-26T02:54:24.031Z,1001.06
2018-07-26T02:55:04.517Z,1001.07
2018-07-26T02:55:44.982Z,1001.11
2018-07-26T02:56:25.486Z,1001.07
2018-07-26T02:57:06.034Z,1001.09
2018-07-26T02:57:46.507Z,1001.06
2018-07-26T02:58:26.991Z,1001.07
2018-07-26T02:59:07.453Z,1001.08
2018-07-26T02:59:47.940Z,1001.09
2018-07-26T03:00:28.458Z,1001.09
2018-07-26T03:01:08.947Z,1001.1
2018-07-26T03:01:49.433Z,1001.09
2018-07-26T03:02:29.943Z,1001.09
2018-07-26T03:03:10.439Z,1001.08
2018-07-26T03:03:50.912Z,1001.1
2018-07-26T03:04:31.384Z,1001.07
2018-07-26T03:05:11.884Z,1001.11
2018-07-26T03:05:52.409Z,1001.08
2018-07-26T03:06:32.904Z,1001.09
2018-07-26T03:07:13.455Z,1001.07
2018-07-26T03:07:53.962Z,1001.08
2018-07-26T03:08:34.360Z,1001.11
2018-07-26T03:09:14.907Z,1001.06
2018-07-26T03:09:55.370Z,1001.12
2018-07-26T03:10:35.894Z,1001.08
2018-07-26T03:11:16.434Z,1001.05
2018-07-26T03:11:56.888Z,1001.09
2018-07-26T03:12:37.366Z,1001.09
2018-07-26T03:13:17.851Z,1001.1
2018-07-26T03:13:58.404Z,1001.09
2018-07-26T03:14:38.875Z,1001.08
2018-07-26T03:15:19.355Z,1001.06
2018-07-26T03:15:59.854Z,1001.03
2018-07-26T03:16:40.353Z,1001.02
2018-07-26T03:17:20.852Z,1001.02
2018-07-26T03:18:01.336Z,1001
2018-07-26T03:18:41.812Z,1001.05
2018-07-26T03:19:22.369Z,1001.03
2018-07-26T03:20:02.851Z,1001.05
2018-07-26T03:20:43.281Z,1001.01
2018-07-26T03:21:23.788Z,1001.06
2018-07-26T03:22:04.296Z,1001.04
2018-07-26T03:22:44.801Z,1001.05
2018-07-26T03:23:25.294Z,1001.03
2018-07-26T03:24:05.787Z,1001.06
2018-07-26T03:24:46.255Z,1001.06
2018-07-26T03:25:26.788Z,1001.07
2018-07-26T03:26:07.326Z,1001.06
2018-07-26T03:26:47.775Z,1001.03
2018-07-26T03:27:28.292Z,1001.1
2018-07-26T03:28:08.789Z,1001.06
2018-07-26T03:28:49.291Z,1001.06
2018-07-26T03:29:29.831Z,1001.09
2018-07-26T03:30:10.334Z,1001.08
2018-07-26T03:30:50.832Z,1001.12
2018-07-26T03:31:31.339Z,1001.1
2018-07-26T03:32:11.813Z,1001.08
2018-07-26T03:32:52.312Z,1001.08
2018-07-26T03:33:32.876Z,1001.08
2018-07-26T03:34:13.336Z,1001.09
2018-07-26T03:34:53.870Z,1001.12
2018-07-26T03:35:34.356Z,1001.13
2018-07-26T03:36:14.863Z,1001.14
2018-07-26T03:36:55.332Z,1001.15
2018-07-26T03:37:35.880Z,1001.14
2018-07-26T03:38:16.372Z,1001.13
2018-07-26T03:38:56.864Z,1001.17
2018-07-26T03:39:37.387Z,1001.13
2018-07-26T03:40:17.854Z,1001.16
2018-07-26T03:40:58.339Z,1001.18
2018-07-26T03:41:38.815Z,1001.2
2018-07-26T03:42:19.363Z,1001.18
2018-07-26T03:42:59.833Z,1001.25
2018-07-26T03:43:40.367Z,1001.24
2018-07-26T03:44:20.842Z,1001.21
2018-07-26T03:45:01.317Z,1001.24
2018-07-26T03:45:41.796Z,1001.29
2018-07-26T03:46:22.306Z,1001.25
2018-07-26T03:47:02.800Z,1001.27
2018-07-26T03:47:43.294Z,1001.29
2018-07-26T03:48:23.800Z,1001.25
2018-07-26T03:49:04.345Z,1001.21
2018-07-26T03:49:44.825Z,1001.24
2018-07-26T03:50:25.293Z,1001.3
2018-07-26T03:51:05.896Z,1001.3
2018-07-26T03:51:46.304Z,1001.3
2018-07-26T03:52:26.750Z,1001.32
2018-07-26T03:53:07.298Z,1001.29
2018-07-26T03:53:47.758Z,1001.32
2018-07-26T03:54:28.277Z,1001.31
2018-07-26T03:55:08.781Z,1001.32
2018-07-26T03:55:49.251Z,1001.32
2018-07-26T03:56:29.745Z,1001.39
2018-07-26T03:57:10.248Z,1001.41
2018-07-26T03:57:50.752Z,1001.38
2018-07-26T03:58:31.181Z,1001.34
2018-07-26T03:59:11.714Z,1001.35
2018-07-26T03:59:52.142Z,1001.38
2018-07-26T04:00:32.677Z,1001.37
2018-07-26T04:01:13.185Z,1001.4
2018-07-26T04:01:53.654Z,1001.38
2018-07-26T04:02:34.188Z,1001.39
2018-07-26T04:03:14.673Z,1001.37
2018-07-26T04:03:55.135Z,1001.34
2018-07-26T04:04:35.651Z,1001.4
2018-07-26T04:05:16.124Z,1001.42
2018-07-26T04:05:56.642Z,1001.38
2018-07-26T04:06:37.139Z,1001.4
2018-07-26T04:07:17.631Z,1001.33
2018-07-26T04:07:58.137Z,1001.38
2018-07-26T04:08:38.614Z,1001.36
2018-07-26T04:09:19.091Z,1001.38
2018-07-26T04:09:59.613Z,1001.35
2018-07-26T04:10:40.103Z,1001.37
2018-07-26T04:11:20.601Z,1001.35
2018-07-26T04:12:01.100Z,1001.41
2018-07-26T04:12:41.638Z,1001.38
2018-07-26T04:13:22.240Z,1001.38
2018-07-26T04:14:02.679Z,1001.39
2018-07-26T04:14:43.140Z,1001.4
2018-07-26T04:15:23.622Z,1001.38
2018-07-26T04:16:04.165Z,1001.39
2018-07-26T04:16:44.606Z,1001.42
2018-07-26T04:17:25.264Z,1001.42
2018-07-26T04:18:09.614Z,1001.41
2018-07-26T04:18:50.091Z,1001.4
2018-07-26T04:19:30.619Z,1001.38
2018-07-26T04:20:11.147Z,1001.4
2018-07-26T04:20:51.618Z,1001.37
2018-07-26T04:21:32.100Z,1001.35
2018-07-26T04:22:12.598Z,1001.34
2018-07-26T04:22:53.090Z,1001.34
2018-07-26T04:23:33.581Z,1001.3
2018-07-26T04:24:14.128Z,1001.35
2018-07-26T04:24:54.582Z,1001.37
2018-07-26T04:25:35.073Z,1001.33
2018-07-26T04:26:15.615Z,1001.37
2018-07-26T04:26:56.083Z,1001.36
2018-07-26T04:27:36.596Z,1001.41
2018-07-26T04:28:17.097Z,1001.39
2018-07-26T04:28:57.580Z,1001.36
2018-07-26T04:29:38.075Z,1001.38
2018-07-26T04:30:18.546Z,1001.37
2018-07-26T04:30:59.049Z,1001.37
2018-07-26T04:31:39.645Z,1001.4
2018-07-26T04:32:20.078Z,1001.38
2018-07-26T04:33:00.612Z,1001.38
2018-07-26T04:33:41.077Z,1001.36
2018-07-26T04:34:21.535Z,1001.37
2018-07-26T04:35:02.025Z,1001.37
2018-07-26T04:35:42.575Z,1001.38
2018-07-26T04:36:23.039Z,1001.35
2018-07-26T04:37:03.590Z,1001.37
2018-07-26T04:37:44.083Z,1001.37
2018-07-26T04:38:24.585Z,1001.36
2018-07-26T04:39:05.045Z,1001.42
2018-07-26T04:39:45.527Z,1001.38
2018-07-26T04:40:26.034Z,1001.4
2018-07-26T04:41:06.552Z,1001.43
2018-07-26T04:41:47.105Z,1001.44
2018-07-26T04:42:27.571Z,1001.45
2018-07-26T04:43:08.083Z,1001.41
2018-07-26T04:43:48.553Z,1001.43
2018-07-26T04:44:29.028Z,1001.42
2018-07-26T04:45:09.519Z,1001.45
2018-07-26T04:45:50.045Z,1001.42
2018-07-26T04:46:30.631Z,1001.44
2018-07-26T04:47:11.099Z,1001.46
2018-07-26T04:47:51.694Z,1001.5
2018-07-26T04:48:32.127Z,1001.48
2018-07-26T04:49:12.632Z,1001.49
2018-07-26T04:49:53.135Z,1001.52
2018-07-26T04:50:33.636Z,1001.47
2018-07-26T04:51:14.109Z,1001.5
2018-07-26T04:51:54.645Z,1001.51
2018-07-26T04:52:35.423Z,1001.45
2018-07-26T04:53:15.893Z,1001.52
2018-07-26T04:53:56.401Z,1001.5
2018-07-26T04:54:36.934Z,1001.5
2018-07-26T04:55:17.460Z,1001.5
2018-07-26T04:55:57.935Z,1001.49
2018-07-26T04:56:38.420Z,1001.54
2018-07-26T04:57:18.932Z,1001.56
2018-07-26T04:57:59.494Z,1001.57
2018-07-26T04:58:39.951Z,1001.6
2018-07-26T04:59:20.423Z,1001.57
2018-07-26T05:00:00.972Z,1001.59
2018-07-26T05:00:41.395Z,1001.62
2018-07-26T05:01:21.919Z,1001.64
2018-07-26T05:02:02.419Z,1001.62
2018-07-26T05:02:42.863Z,1001.58
2018-07-26T05:03:23.410Z,1001.63
2018-07-26T05:04:03.905Z,1001.6
2018-07-26T05:04:44.418Z,1001.64
2018-07-26T05:05:24.976Z,1001.63
2018-07-26T05:06:05.531Z,1001.68
2018-07-26T05:06:45.970Z,1001.65
2018-07-26T05:07:26.520Z,1001.62
2018-07-26T05:08:07.060Z,1001.61
2018-07-26T05:08:47.556Z,1001.65
2018-07-26T05:09:28.064Z,1001.61
2018-07-26T05:10:08.580Z,1001.63
2018-07-26T05:10:49.402Z,1001.63
2018-07-26T05:11:29.931Z,1001.65
2018-07-26T05:12:12.519Z,1001.66
2018-07-26T05:12:52.960Z,1001.62
2018-07-26T05:13:33.518Z,1001.59
2018-07-26T05:14:13.991Z,1001.62
2018-07-26T05:14:54.431Z,1001.65
2018-07-26T05:15:34.913Z,1001.64
2018-07-26T05:16:15.647Z,1001.64
2018-07-26T05:16:56.089Z,1001.63
2018-07-26T05:17:36.545Z,1001.65
2018-07-26T05:18:17.038Z,1001.66
2018-07-26T05:18:57.533Z,1001.66
2018-07-26T05:19:38.062Z,1001.65
2018-07-26T05:20:18.511Z,1001.67
2018-07-26T05:20:59.044Z,1001.68
2018-07-26T05:21:39.525Z,1001.73
2018-07-26T05:22:20.071Z,1001.69
2018-07-26T05:23:00.540Z,1001.7
2018-07-26T05:23:41.095Z,1001.64
2018-07-26T05:24:21.633Z,1001.71
2018-07-26T05:25:02.153Z,1001.71
2018-07-26T05:25:42.689Z,1001.7
2018-07-26T05:26:23.216Z,1001.75
2018-07-26T05:27:03.696Z,1001.75
2018-07-26T05:27:44.284Z,1001.71
2018-07-26T05:28:24.714Z,1001.68
2018-07-26T05:29:05.282Z,1001.72
2018-07-26T05:29:45.927Z,1001.71
2018-07-26T05:30:26.464Z,1001.76
2018-07-26T05:31:06.954Z,1001.71
2018-07-26T05:31:47.501Z,1001.72
2018-07-26T05:32:27.997Z,1001.76
2018-07-26T05:33:08.465Z,1001.74
2018-07-26T05:33:49.046Z,1001.7
2018-07-26T05:34:29.580Z,1001.72
2018-07-26T05:35:10.133Z,1001.78
2018-07-26T05:35:50.649Z,1001.79
2018-07-26T05:36:31.210Z,1001.77
2018-07-26T05:37:11.759Z,1001.76
2018-07-26T05:37:52.289Z,1001.77
2018-07-26T05:38:32.754Z,1001.76
2018-07-26T05:39:13.380Z,1001.78
2018-07-26T05:39:53.846Z,1001.8
2018-07-26T05:40:34.402Z,1001.73
2018-07-26T05:41:14.821Z,1001.74
2018-07-26T05:41:55.324Z,1001.75
2018-07-26T05:42:36.093Z,1001.76
2018-07-26T05:43:16.663Z,1001.75
2018-07-26T05:43:57.146Z,1001.75
2018-07-26T05:44:37.596Z,1001.76
2018-07-26T05:45:18.156Z,1001.73
2018-07-26T05:45:58.611Z,1001.77
2018-07-26T05:46:39.149Z,1001.69
2018-07-26T05:47:19.639Z,1001.79
2018-07-26T05:48:00.154Z,1001.77
2018-07-26T05:48:40.622Z,1001.79
2018-07-26T05:49:21.160Z,1001.82
2018-07-26T05:50:01.619Z,1001.77
2018-07-26T05:50:42.149Z,1001.81
2018-07-26T05:51:22.629Z,1001.81
2018-07-26T05:52:03.179Z,1001.81
2018-07-26T05:52:43.694Z,1001.8
2018-07-26T05:53:24.194Z,1001.83
2018-07-26T05:54:04.836Z,1001.86
2018-07-26T05:54:45.370Z,1001.85
2018-07-26T05:55:25.878Z,1001.88
2018-07-26T05:56:06.311Z,1001.88
2018-07-26T05:56:46.913Z,1001.89
2018-07-26T05:57:27.468Z,1001.91
2018-07-26T05:58:07.964Z,1001.91
2018-07-26T05:58:48.436Z,1001.98
2018-07-26T05:59:28.902Z,1001.96
2018-07-26T06:00:09.521Z,1001.97
2018-07-26T06:00:51.777Z,1001.99
2018-07-26T06:01:32.330Z,1001.92
2018-07-26T06:02:12.808Z,1001.98
2018-07-26T06:02:53.295Z,1001.96
2018-07-26T06:03:33.771Z,1002
2018-07-26T06:04:14.304Z,1002.05
2018-07-26T06:04:54.810Z,1001.98
2018-07-26T06:05:35.308Z,1001.97
2018-07-26T06:06:15.964Z,1001.97
2018-07-26T06:06:56.476Z,1002.02
2018-07-26T06:07:37.154Z,1002.04
2018-07-26T06:08:17.655Z,1002.06
2018-07-26T06:08:58.165Z,1002.07
2018-07-26T06:09:38.695Z,1002.06
2018-07-26T06:10:19.190Z,1002.07
2018-07-26T06:10:59.736Z,1002.1
2018-07-26T06:11:40.269Z,1002.08
2018-07-26T06:12:20.870Z,1002.11
2018-07-26T06:13:01.265Z,1002.1
2018-07-26T06:13:41.720Z,1002.09
2018-07-26T06:14:22.224Z,1002.1
2018-07-26T06:15:02.799Z,1002.11
2018-07-26T06:15:43.272Z,1002.09
2018-07-26T06:16:23.808Z,1002.11
2018-07-26T06:17:04.338Z,1002.11
2018-07-26T06:17:44.771Z,1002.09
2018-07-26T06:18:25.384Z,1002.07
2018-07-26T06:19:05.791Z,1002.11
2018-07-26T06:19:46.264Z,1002.1
2018-07-26T06:20:26.818Z,1002.07
2018-07-26T06:21:07.273Z,1002.03
2018-07-26T06:21:47.723Z,1002.05
2018-07-26T06:22:28.232Z,1002.07
2018-07-26T06:23:08.771Z,1002.06
2018-07-26T06:23:49.227Z,1002.03
2018-07-26T06:24:29.780Z,1002.01
2018-07-26T06:25:10.346Z,1002.04
2018-07-26T06:25:50.822Z,1002.04
2018-07-26T06:26:31.362Z,1002.05
2018-07-26T06:27:11.809Z,1002.07
2018-07-26T06:27:52.363Z,1002.05
2018-07-26T06:28:32.854Z,1002.04
2018-07-26T06:29:13.311Z,1002.08
2018-07-26T06:29:53.843Z,1002.08
2018-07-26T06:30:34.327Z,1002.06
2018-07-26T06:31:14.882Z,1002.07
2018-07-26T06:31:55.376Z,1002.09
2018-07-26T06:32:36.338Z,1002.11
2018-07-26T06:33:16.897Z,1002.06
2018-07-26T06:33:57.413Z,1002.09
2018-07-26T06:34:37.928Z,1002.11
2018-07-26T06:35:18.409Z,1002.09
2018-07-26T06:35:58.887Z,1002.07
2018-07-26T06:36:39.440Z,1002.04
2018-07-26T06:37:19.963Z,1002.1
2018-07-26T06:38:00.448Z,1002.08
2018-07-26T06:38:40.930Z,1002.08
2018-07-26T06:39:21.512Z,1002.07
2018-07-26T06:40:01.996Z,1002.08
2018-07-26T06:40:42.580Z,1002.1
2018-07-26T06:41:22.979Z,1002.1
2018-07-26T06:42:03.510Z,1002.05
2018-07-26T06:42:44.051Z,1002.08
2018-07-26T06:43:24.546Z,1002.07
2018-07-26T06:44:05.045Z,1002.1
2018-07-26T06:44:45.524Z,1002.09
2018-07-26T06:45:25.996Z,1002.07
2018-07-26T06:46:06.468Z,1002.08
2018-07-26T06:46:47.031Z,1002.06
2018-07-26T06:47:27.535Z,1002.06
2018-07-26T06:48:08.061Z,1002.09
2018-07-26T06:48:48.507Z,1002.08
2018-07-26T06:49:29.039Z,1002.09
2018-07-26T06:50:09.548Z,1002.1
2018-07-26T06:50:50.033Z,1002.1
2018-07-26T06:51:30.553Z,1002.1
2018-07-26T06:52:11.138Z,1002.1
2018-07-26T06:52:53.541Z,1002.09
2018-07-26T06:53:34.114Z,1002.06
2018-07-26T06:54:14.582Z,1002.13
2018-07-26T06:54:55.156Z,1002.1
2018-07-26T06:55:35.651Z,1002.1
2018-07-26T06:56:16.205Z,1002.12
2018-07-26T06:56:56.779Z,1002.11
2018-07-26T06:57:37.280Z,1002.12
2018-07-26T06:58:17.766Z,1002.14
2018-07-26T06:58:58.335Z,1002.17
2018-07-26T06:59:38.843Z,1002.16
2018-07-26T07:00:19.484Z,1002.16
2018-07-26T07:01:00.054Z,1002.13
2018-07-26T07:01:40.517Z,1002.15
2018-07-26T07:02:21.110Z,1002.17
2018-07-26T07:03:01.573Z,1002.15
2018-07-26T07:03:42.083Z,1002.22
2018-07-26T07:04:22.595Z,1002.17
2018-07-26T07:05:03.093Z,1002.15
2018-07-26T07:05:43.569Z,1002.15
2018-07-26T07:06:24.094Z,1002.18
2018-07-26T07:07:04.608Z,1002.17
2018-07-26T07:07:45.106Z,1002.23
2018-07-26T07:08:25.611Z,1002.14
2018-07-26T07:09:06.154Z,1002.11
2018-07-26T07:09:46.661Z,1002.16
2018-07-26T07:10:27.157Z,1002.16
2018-07-26T07:11:07.678Z,1002.21
2018-07-26T07:11:48.125Z,1002.17
2018-07-26T07:12:28.673Z,1002.16
2018-07-26T07:13:09.118Z,1002.12
2018-07-26T07:13:49.627Z,1002.15
2018-07-26T07:14:30.147Z,1002.15
2018-07-26T07:15:10.665Z,1002.12
2018-07-26T07:15:51.115Z,1002.15
2018-07-26T07:16:31.707Z,1002.12
2018-07-26T07:17:12.220Z,1002.12
2018-07-26T07:17:52.652Z,1002.12
2018-07-26T07:18:33.204Z,1002.08
2018-07-26T07:19:13.701Z,1002.14
2018-07-26T07:19:54.200Z,1002.11
2018-07-26T07:20:34.760Z,1002.14
2018-07-26T07:21:15.196Z,1002.12
2018-07-26T07:21:55.727Z,1002.11
2018-07-26T07:22:36.202Z,1002.17
2018-07-26T07:23:16.768Z,1002.18
2018-07-26T07:23:57.237Z,1002.1
2018-07-26T07:24:37.726Z,1002.15
2018-07-26T07:25:18.289Z,1002.16
2018-07-26T07:25:58.795Z,1002.13
2018-07-26T07:26:39.276Z,1002.1
2018-07-26T07:27:19.747Z,1002.16
2018-07-26T07:28:00.264Z,1002.18
2018-07-26T07:28:40.824Z,1002.16
2018-07-26T07:29:21.295Z,1002.17
2018-07-26T07:30:01.802Z,1002.11
2018-07-26T07:30:42.336Z,1002.12
2018-07-26T07:31:22.848Z,1002.17
2018-07-26T07:32:03.335Z,1002.17
2018-07-26T07:32:43.844Z,1002.15
2018-07-26T07:33:24.323Z,1002.15
2018-07-26T07:34:04.816Z,1002.11
2018-07-26T07:34:45.363Z,1002.15
2018-07-26T07:35:25.837Z,1002.16
2018-07-26T07:36:06.380Z,1002.17
2018-07-26T07:36:46.801Z,1002.15
2018-07-26T07:37:27.282Z,1002.24
2018-07-26T07:38:07.801Z,1002.18
2018-07-26T07:38:48.324Z,1002.17
2018-07-26T07:39:28.857Z,1002.16
2018-07-26T07:40:09.331Z,1002.17
2018-07-26T07:40:49.880Z,1002.12
2018-07-26T07:41:30.392Z,1002.16
2018-07-26T07:42:10.873Z,1002.14
2018-07-26T07:42:51.377Z,1002.18
2018-07-26T07:43:31.888Z,1002.15
2018-07-26T07:44:12.400Z,1002.1
2018-07-26T07:44:52.907Z,1002.12
2018-07-26T07:45:33.412Z,1002.13
2018-07-26T07:46:13.882Z,1002.14
2018-07-26T07:46:54.468Z,1002.13
2018-07-26T07:47:34.958Z,1002.17
2018-07-26T07:48:15.375Z,1002.17
2018-07-26T07:48:56.001Z,1002.18
2018-07-26T07:49:36.447Z,1002.11
2018-07-26T07:50:16.936Z,1002.21
2018-07-26T07:50:57.608Z,1002.13
2018-07-26T07:51:38.086Z,1002.12
2018-07-26T07:52:18.577Z,1002.1
2018-07-26T07:52:59.242Z,1002.12
2018-07-26T07:53:39.733Z,1002.05
2018-07-26T07:54:20.247Z,1002
2018-07-26T07:55:00.761Z,1002.04
2018-07-26T07:55:41.251Z,1002.07
2018-07-26T07:56:21.837Z,1002.07
2018-07-26T07:57:02.223Z,1002.04
2018-07-26T07:57:43.443Z,1002.09
2018-07-26T07:58:23.955Z,1002.06
2018-07-26T07:59:04.438Z,1002.02
2018-07-26T07:59:44.966Z,1002.03
2018-07-26T08:00:25.444Z,1002.08
2018-07-26T08:01:05.944Z,1002.07
2018-07-26T08:01:46.455Z,1002.07
2018-07-26T08:02:26.972Z,1002.07
2018-07-26T08:03:07.429Z,1002.04
2018-07-26T08:03:47.956Z,1002.08
2018-07-26T08:04:28.420Z,1002.05
2018-07-26T08:05:08.928Z,1002.08
2018-07-26T08:05:49.441Z,1002.05
2018-07-26T08:06:29.982Z,1002.05
2018-07-26T08:07:10.590Z,1002.06
2018-07-26T08:07:51.093Z,1002.12
2018-07-26T08:08:31.599Z,1002.1
2018-07-26T08:09:12.131Z,1002.08
2018-07-26T08:09:52.645Z,1002.05
2018-07-26T08:10:33.151Z,1002.1
2018-07-26T08:11:13.685Z,1002.08
2018-07-26T08:11:54.178Z,1002.07
2018-07-26T08:12:34.681Z,1002.06
2018-07-26T08:13:15.349Z,1002.08